RYR10MQ LEST-LEZL
Flight info
| Callsign | RYR10MQ |
|---|---|
| Flight time | 1h 39m |
| Altitude | 33000 |
| Route | FORNO DCT DESAT DCT ZMR DCT AVILA DCT NVS DCT TLD DCT DOPEN DCT MONTO DCT MOLIN DCT HIJ |
| Aircraft | B738/M-SDE2E3FGHIRWXY/LB1 |
Departure
| Time | 2026-05-01 08:12 |
|---|---|
| Airport | Santiago-Rosalía de Castro Airport (LEST) |
Arrival
| Time | 2026-05-01 09:52 |
|---|---|
| Airport | Seville Airport (LEZL) |
| Time | Latitude | Longitude | Altitude | Speed | Heading |
|---|---|---|---|---|---|
| 2026-05-01 07:23 | 42.89034 | -8.41796 | 1201 ft | 0 kts | 166° |
| 2026-05-01 08:06 | 42.89039 | -8.41797 | 1201 ft | 3 kts | 161° |
| 2026-05-01 08:07 | 42.89051 | -8.41847 | 1200 ft | 1 kts | 79° |
| 2026-05-01 08:07 | 42.89050 | -8.41853 | 1200 ft | 0 kts | 79° |
| 2026-05-01 08:09 | 42.89051 | -8.41848 | 1200 ft | 4 kts | 79° |
| 2026-05-01 08:10 | 42.89045 | -8.41545 | 1201 ft | 22 kts | 156° |
| 2026-05-01 08:10 | 42.88733 | -8.41439 | 1205 ft | 23 kts | 166° |
| 2026-05-01 08:11 | 42.88418 | -8.41334 | 1208 ft | 24 kts | 156° |
| 2026-05-01 08:11 | 42.88479 | -8.41129 | 1211 ft | 0 kts | 346° |
| 2026-05-01 08:12 | 42.88965 | -8.41288 | 1202 ft | 102 kts | 346° |
| 2026-05-01 08:12 | 42.89858 | -8.41596 | 1222 ft | 159 kts | 345° |
| 2026-05-01 08:12 | 42.92094 | -8.42322 | 2631 ft | 165 kts | 347° |
| 2026-05-01 08:13 | 42.93251 | -8.42691 | 3147 ft | 184 kts | 346° |
| 2026-05-01 08:13 | 42.94573 | -8.43157 | 3447 ft | 204 kts | 347° |
| 2026-05-01 08:13 | 42.97589 | -8.44185 | 4178 ft | 236 kts | 347° |
| 2026-05-01 08:14 | 42.99299 | -8.44320 | 4449 ft | 259 kts | 12° |
| 2026-05-01 08:14 | 43.00995 | -8.43385 | 4960 ft | 269 kts | 34° |
| 2026-05-01 08:14 | 43.02343 | -8.41609 | 5609 ft | 272 kts | 57° |
| 2026-05-01 08:14 | 43.03092 | -8.39245 | 6000 ft | 273 kts | 82° |
| 2026-05-01 08:15 | 43.02987 | -8.36673 | 6617 ft | 275 kts | 108° |
| 2026-05-01 08:15 | 43.00651 | -8.32704 | 8143 ft | 276 kts | 152° |
| 2026-05-01 08:15 | 42.98878 | -8.31693 | 8927 ft | 277 kts | 161° |
| 2026-05-01 08:16 | 42.97040 | -8.30847 | 9687 ft | 281 kts | 162° |
| 2026-05-01 08:16 | 42.95173 | -8.30028 | 10445 ft | 285 kts | 163° |
| 2026-05-01 08:16 | 42.93207 | -8.29179 | 10701 ft | 308 kts | 163° |
| 2026-05-01 08:16 | 42.91117 | -8.28278 | 10948 ft | 328 kts | 163° |
| 2026-05-01 08:17 | 42.88912 | -8.27326 | 11525 ft | 336 kts | 163° |
| 2026-05-01 08:17 | 42.86667 | -8.26355 | 12268 ft | 339 kts | 163° |
| 2026-05-01 08:17 | 42.84416 | -8.25354 | 13021 ft | 343 kts | 159° |
| 2026-05-01 08:17 | 42.82363 | -8.23638 | 13736 ft | 351 kts | 140° |
| 2026-05-01 08:18 | 42.80855 | -8.21009 | 14478 ft | 359 kts | 118° |
| 2026-05-01 08:18 | 42.80276 | -8.14260 | 15922 ft | 375 kts | 77° |
| 2026-05-01 08:19 | 42.83123 | -8.08315 | 17278 ft | 387 kts | 37° |
| 2026-05-01 08:19 | 42.85503 | -8.06599 | 17915 ft | 391 kts | 17° |
| 2026-05-01 08:19 | 42.88183 | -8.06037 | 18563 ft | 392 kts | 357° |
| 2026-05-01 08:19 | 42.90889 | -8.06511 | 19214 ft | 393 kts | 345° |
| 2026-05-01 08:20 | 42.93500 | -8.07646 | 19810 ft | 395 kts | 335° |
| 2026-05-01 08:20 | 42.95921 | -8.09400 | 20381 ft | 395 kts | 321° |
| 2026-05-01 08:20 | 42.97744 | -8.12151 | 20929 ft | 391 kts | 296° |
| 2026-05-01 08:20 | 42.98559 | -8.15635 | 21498 ft | 386 kts | 272° |
| 2026-05-01 08:21 | 42.98243 | -8.19238 | 22055 ft | 384 kts | 248° |
| 2026-05-01 08:21 | 42.96858 | -8.22307 | 22600 ft | 383 kts | 224° |
| 2026-05-01 08:21 | 42.94773 | -8.24570 | 23180 ft | 384 kts | 213° |
| 2026-05-01 08:21 | 42.92406 | -8.26285 | 23655 ft | 389 kts | 202° |
| 2026-05-01 08:22 | 42.89793 | -8.27328 | 24110 ft | 394 kts | 193° |
| 2026-05-01 08:22 | 42.87154 | -8.28159 | 24574 ft | 396 kts | 194° |
| 2026-05-01 08:22 | 42.84403 | -8.28495 | 25000 ft | 404 kts | 175° |
| 2026-05-01 08:22 | 42.81717 | -8.27308 | 25454 ft | 414 kts | 152° |
| 2026-05-01 08:23 | 42.79531 | -8.24714 | 25917 ft | 425 kts | 130° |
| 2026-05-01 08:23 | 42.78114 | -8.21138 | 26317 ft | 433 kts | 117° |
| 2026-05-01 08:23 | 42.76694 | -8.17518 | 26665 ft | 434 kts | 124° |
| 2026-05-01 08:23 | 42.75059 | -8.14051 | 26995 ft | 438 kts | 127° |
| 2026-05-01 08:24 | 42.73344 | -8.10613 | 27345 ft | 441 kts | 128° |
| 2026-05-01 08:24 | 42.71615 | -8.07151 | 27717 ft | 444 kts | 127° |
| 2026-05-01 08:24 | 42.69899 | -8.03647 | 28075 ft | 447 kts | 127° |
| 2026-05-01 08:24 | 42.68205 | -8.00087 | 28400 ft | 450 kts | 126° |
| 2026-05-01 08:25 | 42.66518 | -7.96491 | 28732 ft | 453 kts | 126° |
| 2026-05-01 08:25 | 42.64826 | -7.92866 | 29078 ft | 456 kts | 126° |
| 2026-05-01 08:25 | 42.63122 | -7.89219 | 29423 ft | 458 kts | 126° |
| 2026-05-01 08:25 | 42.61412 | -7.85570 | 29808 ft | 458 kts | 126° |
| 2026-05-01 08:26 | 42.59700 | -7.81926 | 30253 ft | 457 kts | 126° |
| 2026-05-01 08:26 | 42.57990 | -7.78297 | 30713 ft | 456 kts | 126° |
| 2026-05-01 08:26 | 42.56284 | -7.74686 | 31104 ft | 455 kts | 126° |
| 2026-05-01 08:26 | 42.54573 | -7.71071 | 31474 ft | 455 kts | 126° |
| 2026-05-01 08:27 | 42.52859 | -7.67457 | 31861 ft | 454 kts | 126° |
| 2026-05-01 08:27 | 42.51152 | -7.63859 | 32233 ft | 454 kts | 126° |
| 2026-05-01 08:27 | 42.49445 | -7.60269 | 32583 ft | 454 kts | 126° |
| 2026-05-01 08:27 | 42.47734 | -7.56675 | 32940 ft | 453 kts | 126° |
| 2026-05-01 08:28 | 42.46023 | -7.53086 | 33182 ft | 455 kts | 126° |
| 2026-05-01 08:28 | 42.42559 | -7.45832 | 33149 ft | 458 kts | 126° |
| 2026-05-01 08:29 | 42.39128 | -7.38656 | 33169 ft | 451 kts | 126° |
| 2026-05-01 08:29 | 42.35702 | -7.31513 | 33163 ft | 453 kts | 126° |
| 2026-05-01 08:30 | 42.32260 | -7.24355 | 33166 ft | 455 kts | 126° |
| 2026-05-01 08:30 | 42.28824 | -7.17225 | 33161 ft | 455 kts | 126° |
| 2026-05-01 08:31 | 42.25359 | -7.10054 | 33161 ft | 456 kts | 126° |
| 2026-05-01 08:31 | 42.21887 | -7.02881 | 33152 ft | 456 kts | 126° |
| 2026-05-01 08:32 | 42.18420 | -6.95735 | 33154 ft | 455 kts | 126° |
| 2026-05-01 08:32 | 42.14952 | -6.88601 | 33152 ft | 454 kts | 126° |
| 2026-05-01 08:33 | 42.11485 | -6.81492 | 33148 ft | 454 kts | 126° |
| 2026-05-01 08:33 | 42.08018 | -6.74402 | 33155 ft | 453 kts | 126° |
| 2026-05-01 08:34 | 42.04573 | -6.67372 | 33159 ft | 452 kts | 125° |
| 2026-05-01 08:34 | 42.01106 | -6.60312 | 33150 ft | 452 kts | 125° |
| 2026-05-01 08:35 | 41.97631 | -6.53252 | 33149 ft | 454 kts | 125° |
| 2026-05-01 08:35 | 41.94142 | -6.46182 | 33156 ft | 454 kts | 125° |
| 2026-05-01 08:36 | 41.91216 | -6.40263 | 33162 ft | 454 kts | 125° |
| 2026-05-01 08:36 | 41.87713 | -6.33194 | 33164 ft | 455 kts | 125° |
| 2026-05-01 08:37 | 41.84216 | -6.26152 | 33153 ft | 457 kts | 125° |
| 2026-05-01 08:37 | 41.80687 | -6.19063 | 33163 ft | 458 kts | 125° |
| 2026-05-01 08:38 | 41.77147 | -6.11969 | 33149 ft | 458 kts | 125° |
| 2026-05-01 08:38 | 41.73608 | -6.04891 | 33158 ft | 458 kts | 125° |
| 2026-05-01 08:39 | 41.70056 | -5.97804 | 33155 ft | 458 kts | 125° |
| 2026-05-01 08:39 | 41.66510 | -5.90746 | 33185 ft | 457 kts | 125° |
| 2026-05-01 08:40 | 41.61188 | -5.80183 | 33181 ft | 456 kts | 125° |
| 2026-05-01 08:40 | 41.57644 | -5.73169 | 33183 ft | 455 kts | 125° |
| 2026-05-01 08:41 | 41.53813 | -5.66484 | 33168 ft | 451 kts | 142° |
| 2026-05-01 08:41 | 41.51217 | -5.64226 | 33191 ft | 445 kts | 158° |
| 2026-05-01 08:41 | 41.48303 | -5.62930 | 33179 ft | 439 kts | 173° |
| 2026-05-01 08:42 | 41.42263 | -5.61861 | 33184 ft | 437 kts | 175° |
| 2026-05-01 08:42 | 41.36224 | -5.60835 | 33185 ft | 438 kts | 175° |
| 2026-05-01 08:43 | 41.30177 | -5.59753 | 33188 ft | 439 kts | 175° |
| 2026-05-01 08:43 | 41.24166 | -5.58646 | 33181 ft | 439 kts | 175° |
| 2026-05-01 08:44 | 41.18110 | -5.57525 | 33183 ft | 440 kts | 175° |
| 2026-05-01 08:44 | 41.12016 | -5.56396 | 33183 ft | 440 kts | 175° |
| 2026-05-01 08:45 | 41.05987 | -5.55283 | 33183 ft | 440 kts | 174° |
| 2026-05-01 08:45 | 40.99924 | -5.54166 | 33182 ft | 440 kts | 174° |
| 2026-05-01 08:46 | 40.93859 | -5.53052 | 33187 ft | 440 kts | 174° |
| 2026-05-01 08:46 | 40.87798 | -5.51942 | 33184 ft | 439 kts | 175° |
| 2026-05-01 08:47 | 40.81745 | -5.50833 | 33193 ft | 439 kts | 175° |
| 2026-05-01 08:47 | 40.75692 | -5.49726 | 33181 ft | 439 kts | 175° |
| 2026-05-01 08:48 | 40.69630 | -5.48621 | 33183 ft | 439 kts | 175° |
| 2026-05-01 08:48 | 40.63571 | -5.47518 | 33183 ft | 439 kts | 175° |
| 2026-05-01 08:49 | 40.57512 | -5.46416 | 33184 ft | 440 kts | 175° |
| 2026-05-01 08:49 | 40.51447 | -5.45316 | 33183 ft | 440 kts | 175° |
| 2026-05-01 08:50 | 40.45420 | -5.44223 | 33188 ft | 440 kts | 175° |
| 2026-05-01 08:50 | 40.39350 | -5.43127 | 33183 ft | 441 kts | 175° |
| 2026-05-01 08:51 | 40.33266 | -5.42030 | 33180 ft | 441 kts | 175° |
| 2026-05-01 08:51 | 40.27179 | -5.40935 | 33188 ft | 442 kts | 175° |
| 2026-05-01 08:52 | 40.21082 | -5.39839 | 33179 ft | 442 kts | 175° |
| 2026-05-01 08:52 | 40.14986 | -5.38744 | 33181 ft | 442 kts | 175° |
| 2026-05-01 08:53 | 40.08881 | -5.37649 | 33174 ft | 442 kts | 175° |
| 2026-05-01 08:53 | 40.02787 | -5.36561 | 33169 ft | 442 kts | 175° |
| 2026-05-01 08:54 | 39.96694 | -5.35477 | 33175 ft | 442 kts | 175° |
| 2026-05-01 08:54 | 39.90599 | -5.34384 | 33178 ft | 442 kts | 175° |
| 2026-05-01 08:55 | 39.84501 | -5.33300 | 33178 ft | 442 kts | 175° |
| 2026-05-01 08:55 | 39.78408 | -5.32222 | 33176 ft | 441 kts | 175° |
| 2026-05-01 08:56 | 39.72330 | -5.31145 | 33174 ft | 441 kts | 175° |
| 2026-05-01 08:56 | 39.66252 | -5.30069 | 33171 ft | 440 kts | 175° |
| 2026-05-01 08:57 | 39.60180 | -5.28996 | 33177 ft | 440 kts | 175° |
| 2026-05-01 08:57 | 39.54112 | -5.27927 | 33173 ft | 440 kts | 175° |
| 2026-05-01 08:58 | 39.48050 | -5.26861 | 33170 ft | 439 kts | 175° |
| 2026-05-01 08:58 | 39.42042 | -5.25805 | 33172 ft | 436 kts | 175° |
| 2026-05-01 08:59 | 39.36080 | -5.24758 | 33177 ft | 430 kts | 175° |
| 2026-05-01 08:59 | 39.30139 | -5.23721 | 32917 ft | 433 kts | 175° |
| 2026-05-01 09:00 | 39.27176 | -5.23202 | 32593 ft | 426 kts | 175° |
| 2026-05-01 09:00 | 39.24243 | -5.22689 | 32156 ft | 422 kts | 175° |
| 2026-05-01 09:00 | 39.21344 | -5.22182 | 31745 ft | 419 kts | 175° |
| 2026-05-01 09:00 | 39.18468 | -5.21680 | 31320 ft | 416 kts | 175° |
| 2026-05-01 09:01 | 39.15616 | -5.21183 | 30902 ft | 413 kts | 175° |
| 2026-05-01 09:01 | 39.12779 | -5.20689 | 30488 ft | 409 kts | 175° |
| 2026-05-01 09:01 | 39.09970 | -5.20199 | 30064 ft | 406 kts | 175° |
| 2026-05-01 09:01 | 39.07178 | -5.19714 | 29647 ft | 403 kts | 175° |
| 2026-05-01 09:02 | 39.04412 | -5.19234 | 29218 ft | 400 kts | 175° |
| 2026-05-01 09:02 | 39.01667 | -5.18758 | 28781 ft | 397 kts | 175° |
| 2026-05-01 09:02 | 38.98941 | -5.18285 | 28369 ft | 394 kts | 175° |
| 2026-05-01 09:02 | 38.96240 | -5.17817 | 27945 ft | 391 kts | 175° |
| 2026-05-01 09:03 | 38.93553 | -5.17352 | 27523 ft | 388 kts | 175° |
| 2026-05-01 09:03 | 38.90885 | -5.16892 | 27107 ft | 385 kts | 175° |
| 2026-05-01 09:03 | 38.88234 | -5.16434 | 26692 ft | 383 kts | 175° |
| 2026-05-01 09:03 | 38.85607 | -5.15980 | 26275 ft | 380 kts | 175° |
| 2026-05-01 09:04 | 38.82998 | -5.15531 | 25866 ft | 377 kts | 175° |
| 2026-05-01 09:04 | 38.80405 | -5.15083 | 25458 ft | 374 kts | 175° |
| 2026-05-01 09:04 | 38.77828 | -5.14639 | 25043 ft | 372 kts | 175° |
| 2026-05-01 09:04 | 38.75302 | -5.14204 | 24638 ft | 370 kts | 175° |
| 2026-05-01 09:05 | 38.72760 | -5.13767 | 24241 ft | 367 kts | 175° |
| 2026-05-01 09:05 | 38.70236 | -5.13332 | 23836 ft | 365 kts | 175° |
| 2026-05-01 09:05 | 38.67694 | -5.12895 | 23491 ft | 361 kts | 175° |
| 2026-05-01 09:05 | 38.65270 | -5.12477 | 23349 ft | 352 kts | 175° |
| 2026-05-01 09:06 | 38.62876 | -5.12066 | 23186 ft | 343 kts | 175° |
| 2026-05-01 09:06 | 38.60534 | -5.11664 | 23038 ft | 335 kts | 175° |
| 2026-05-01 09:06 | 38.58258 | -5.11274 | 22883 ft | 326 kts | 175° |
| 2026-05-01 09:06 | 38.56036 | -5.10894 | 22753 ft | 318 kts | 175° |
| 2026-05-01 09:07 | 38.53871 | -5.10524 | 22614 ft | 310 kts | 175° |
| 2026-05-01 09:07 | 38.51757 | -5.10162 | 22474 ft | 303 kts | 175° |
| 2026-05-01 09:07 | 38.49692 | -5.09967 | 22271 ft | 294 kts | 189° |
| 2026-05-01 09:07 | 38.47764 | -5.10704 | 22018 ft | 287 kts | 212° |
| 2026-05-01 09:08 | 38.46220 | -5.12277 | 21775 ft | 284 kts | 232° |
| 2026-05-01 09:08 | 38.45232 | -5.14421 | 21534 ft | 281 kts | 252° |
| 2026-05-01 09:08 | 38.44915 | -5.16867 | 21289 ft | 281 kts | 272° |
| 2026-05-01 09:08 | 38.45323 | -5.19300 | 21037 ft | 283 kts | 292° |
| 2026-05-01 09:09 | 38.46416 | -5.21386 | 20784 ft | 287 kts | 314° |
| 2026-05-01 09:09 | 38.48039 | -5.22885 | 20546 ft | 291 kts | 332° |
| 2026-05-01 09:09 | 38.49995 | -5.23605 | 20311 ft | 295 kts | 347° |
| 2026-05-01 09:09 | 38.52029 | -5.23979 | 20061 ft | 296 kts | 349° |
| 2026-05-01 09:10 | 38.54073 | -5.24312 | 19812 ft | 297 kts | 349° |
| 2026-05-01 09:10 | 38.56119 | -5.24654 | 19564 ft | 297 kts | 349° |
| 2026-05-01 09:10 | 38.58164 | -5.25011 | 19310 ft | 297 kts | 349° |
| 2026-05-01 09:10 | 38.60215 | -5.25377 | 19070 ft | 297 kts | 349° |
| 2026-05-01 09:11 | 38.62254 | -5.25708 | 18809 ft | 296 kts | 356° |
| 2026-05-01 09:11 | 38.64283 | -5.25264 | 18536 ft | 299 kts | 20° |
| 2026-05-01 09:11 | 38.66021 | -5.23846 | 18282 ft | 298 kts | 43° |
| 2026-05-01 09:11 | 38.67221 | -5.21704 | 18036 ft | 297 kts | 67° |
| 2026-05-01 09:12 | 38.67689 | -5.19166 | 17792 ft | 293 kts | 90° |
| 2026-05-01 09:12 | 38.67365 | -5.16631 | 17529 ft | 288 kts | 114° |
| 2026-05-01 09:12 | 38.66333 | -5.14491 | 17279 ft | 280 kts | 137° |
| 2026-05-01 09:12 | 38.64822 | -5.12971 | 17038 ft | 275 kts | 154° |
| 2026-05-01 09:13 | 38.63057 | -5.12147 | 16788 ft | 269 kts | 171° |
| 2026-05-01 09:13 | 38.61222 | -5.11765 | 16549 ft | 267 kts | 175° |
| 2026-05-01 09:13 | 38.59378 | -5.11469 | 16300 ft | 267 kts | 176° |
| 2026-05-01 09:13 | 38.57530 | -5.11172 | 16047 ft | 267 kts | 175° |
| 2026-05-01 09:14 | 38.55689 | -5.10860 | 15800 ft | 267 kts | 175° |
| 2026-05-01 09:14 | 38.53844 | -5.10538 | 15550 ft | 267 kts | 175° |
| 2026-05-01 09:14 | 38.51999 | -5.10212 | 15302 ft | 268 kts | 175° |
| 2026-05-01 09:14 | 38.50177 | -5.09952 | 15050 ft | 266 kts | 185° |
| 2026-05-01 09:15 | 38.48420 | -5.10529 | 14791 ft | 261 kts | 212° |
| 2026-05-01 09:15 | 38.47084 | -5.12065 | 14550 ft | 264 kts | 237° |
| 2026-05-01 09:15 | 38.46358 | -5.14353 | 14354 ft | 297 kts | 258° |
| 2026-05-01 09:15 | 38.45708 | -5.16921 | 14102 ft | 310 kts | 238° |
| 2026-05-01 09:16 | 38.44149 | -5.18806 | 13851 ft | 313 kts | 208° |
| 2026-05-01 09:16 | 38.42053 | -5.19513 | 13615 ft | 315 kts | 188° |
| 2026-05-01 09:16 | 38.39883 | -5.19843 | 13368 ft | 314 kts | 189° |
| 2026-05-01 09:17 | 38.35591 | -5.20745 | 12860 ft | 312 kts | 192° |
| 2026-05-01 09:17 | 38.33466 | -5.21295 | 12612 ft | 311 kts | 193° |
| 2026-05-01 09:17 | 38.29244 | -5.22500 | 12109 ft | 310 kts | 194° |
| 2026-05-01 09:18 | 38.27152 | -5.23129 | 11858 ft | 309 kts | 195° |
| 2026-05-01 09:18 | 38.22977 | -5.24411 | 11350 ft | 308 kts | 195° |
| 2026-05-01 09:19 | 38.18825 | -5.25701 | 10860 ft | 306 kts | 195° |
| 2026-05-01 09:19 | 38.16755 | -5.26346 | 10634 ft | 305 kts | 194° |
| 2026-05-01 09:19 | 38.14709 | -5.26984 | 10505 ft | 301 kts | 194° |
| 2026-05-01 09:20 | 38.10707 | -5.28231 | 10380 ft | 295 kts | 194° |
| 2026-05-01 09:20 | 38.06679 | -5.29488 | 10367 ft | 301 kts | 194° |
| 2026-05-01 09:21 | 38.02618 | -5.30753 | 10352 ft | 300 kts | 194° |
| 2026-05-01 09:21 | 38.00593 | -5.31382 | 10353 ft | 299 kts | 194° |
| 2026-05-01 09:21 | 37.96578 | -5.32631 | 10358 ft | 299 kts | 194° |
| 2026-05-01 09:22 | 37.92537 | -5.33885 | 10355 ft | 299 kts | 194° |
| 2026-05-01 09:22 | 37.88489 | -5.35141 | 10366 ft | 299 kts | 194° |
| 2026-05-01 09:23 | 37.86467 | -5.35768 | 10362 ft | 300 kts | 194° |
| 2026-05-01 09:23 | 37.82410 | -5.37025 | 10357 ft | 300 kts | 194° |
| 2026-05-01 09:24 | 37.78394 | -5.38266 | 10348 ft | 291 kts | 194° |
| 2026-05-01 09:24 | 37.77107 | -5.38663 | 10338 ft | 283 kts | 194° |
| 2026-05-01 09:24 | 37.73814 | -5.41998 | 10369 ft | 267 kts | 247° |
| 2026-05-01 09:25 | 37.73540 | -5.45910 | 10358 ft | 279 kts | 283° |
| 2026-05-01 09:25 | 37.75870 | -5.49709 | 10353 ft | 284 kts | 332° |
| 2026-05-01 09:26 | 37.77773 | -5.50353 | 10366 ft | 286 kts | 356° |
| 2026-05-01 09:26 | 37.81679 | -5.49387 | 10362 ft | 289 kts | 16° |
| 2026-05-01 09:26 | 37.83605 | -5.48636 | 10362 ft | 290 kts | 16° |
| 2026-05-01 09:27 | 37.87466 | -5.47103 | 10341 ft | 292 kts | 26° |
| 2026-05-01 09:27 | 37.89055 | -5.45537 | 10359 ft | 292 kts | 51° |
| 2026-05-01 09:27 | 37.89981 | -5.43278 | 10365 ft | 290 kts | 77° |
| 2026-05-01 09:28 | 37.90077 | -5.40757 | 10358 ft | 288 kts | 102° |
| 2026-05-01 09:28 | 37.89336 | -5.38439 | 10352 ft | 285 kts | 127° |
| 2026-05-01 09:28 | 37.87911 | -5.36739 | 10359 ft | 282 kts | 152° |
| 2026-05-01 09:28 | 37.86085 | -5.35932 | 10362 ft | 278 kts | 174° |
| 2026-05-01 09:29 | 37.82329 | -5.36665 | 10364 ft | 275 kts | 197° |
| 2026-05-01 09:29 | 37.80491 | -5.37366 | 10362 ft | 276 kts | 197° |
| 2026-05-01 09:30 | 37.76806 | -5.38740 | 10357 ft | 276 kts | 198° |
| 2026-05-01 09:30 | 37.75114 | -5.39848 | 10351 ft | 275 kts | 221° |
| 2026-05-01 09:30 | 37.73516 | -5.44054 | 10362 ft | 276 kts | 268° |
| 2026-05-01 09:31 | 37.73878 | -5.46430 | 10368 ft | 279 kts | 293° |
| 2026-05-01 09:31 | 37.75018 | -5.48407 | 10352 ft | 283 kts | 318° |
| 2026-05-01 09:31 | 37.78726 | -5.49719 | 10360 ft | 288 kts | 8° |
| 2026-05-01 09:32 | 37.80673 | -5.49096 | 10366 ft | 289 kts | 15° |
| 2026-05-01 09:32 | 37.84546 | -5.47621 | 10356 ft | 291 kts | 15° |
| 2026-05-01 09:32 | 37.86492 | -5.46894 | 10354 ft | 292 kts | 17° |
| 2026-05-01 09:33 | 37.88249 | -5.45645 | 10358 ft | 291 kts | 44° |
| 2026-05-01 09:33 | 37.89372 | -5.43540 | 10359 ft | 290 kts | 71° |
| 2026-05-01 09:33 | 37.89030 | -5.38671 | 10366 ft | 284 kts | 123° |
| 2026-05-01 09:34 | 37.87687 | -5.36890 | 10368 ft | 281 kts | 149° |
| 2026-05-01 09:34 | 37.85885 | -5.36013 | 10357 ft | 278 kts | 173° |
| 2026-05-01 09:34 | 37.82129 | -5.36753 | 10369 ft | 275 kts | 197° |
| 2026-05-01 09:35 | 37.80288 | -5.37446 | 10365 ft | 276 kts | 197° |
| 2026-05-01 09:35 | 37.76588 | -5.38826 | 10355 ft | 277 kts | 199° |
| 2026-05-01 09:35 | 37.74940 | -5.40035 | 10360 ft | 276 kts | 224° |
| 2026-05-01 09:36 | 37.73865 | -5.41983 | 10357 ft | 276 kts | 248° |
| 2026-05-01 09:36 | 37.73513 | -5.44353 | 10349 ft | 278 kts | 271° |
| 2026-05-01 09:36 | 37.73979 | -5.46710 | 10360 ft | 280 kts | 296° |
| 2026-05-01 09:36 | 37.75211 | -5.48608 | 10364 ft | 283 kts | 322° |
| 2026-05-01 09:37 | 37.76991 | -5.49648 | 10352 ft | 285 kts | 348° |
| 2026-05-01 09:37 | 37.80911 | -5.49005 | 10363 ft | 289 kts | 16° |
| 2026-05-01 09:37 | 37.82843 | -5.48265 | 10357 ft | 290 kts | 16° |
| 2026-05-01 09:38 | 37.86727 | -5.46792 | 10349 ft | 292 kts | 20° |
| 2026-05-01 09:38 | 37.88422 | -5.45412 | 10361 ft | 292 kts | 47° |
| 2026-05-01 09:38 | 37.89453 | -5.43233 | 10357 ft | 290 kts | 74° |
| 2026-05-01 09:39 | 37.88896 | -5.38396 | 10363 ft | 284 kts | 127° |
| 2026-05-01 09:39 | 37.87473 | -5.36718 | 10363 ft | 280 kts | 152° |
| 2026-05-01 09:39 | 37.85640 | -5.35970 | 10365 ft | 277 kts | 175° |
| 2026-05-01 09:40 | 37.83737 | -5.36159 | 10357 ft | 275 kts | 195° |
| 2026-05-01 09:40 | 37.80068 | -5.37570 | 10348 ft | 276 kts | 206° |
| 2026-05-01 09:40 | 37.78471 | -5.38827 | 10355 ft | 264 kts | 217° |
| 2026-05-01 09:41 | 37.77064 | -5.40212 | 10334 ft | 250 kts | 219° |
| 2026-05-01 09:41 | 37.74297 | -5.42977 | 9384 ft | 258 kts | 218° |
| 2026-05-01 09:41 | 37.72870 | -5.44366 | 8912 ft | 259 kts | 217° |
| 2026-05-01 09:42 | 37.71438 | -5.45741 | 8473 ft | 258 kts | 217° |
| 2026-05-01 09:42 | 37.70008 | -5.47098 | 8065 ft | 256 kts | 216° |
| 2026-05-01 09:42 | 37.67201 | -5.49743 | 7499 ft | 249 kts | 216° |
| 2026-05-01 09:43 | 37.64448 | -5.52407 | 7032 ft | 250 kts | 220° |
| 2026-05-01 09:43 | 37.63124 | -5.53834 | 6805 ft | 251 kts | 220° |
| 2026-05-01 09:43 | 37.61800 | -5.55273 | 6578 ft | 251 kts | 220° |
| 2026-05-01 09:44 | 37.59082 | -5.58209 | 5963 ft | 261 kts | 220° |
| 2026-05-01 09:44 | 37.57708 | -5.59683 | 5713 ft | 259 kts | 220° |
| 2026-05-01 09:44 | 37.56336 | -5.61151 | 5455 ft | 257 kts | 220° |
| 2026-05-01 09:45 | 37.54978 | -5.62585 | 5210 ft | 251 kts | 216° |
| 2026-05-01 09:45 | 37.51794 | -5.63298 | 4747 ft | 232 kts | 166° |
| 2026-05-01 09:45 | 37.50347 | -5.62510 | 4592 ft | 221 kts | 150° |
| 2026-05-01 09:46 | 37.49026 | -5.61466 | 4497 ft | 224 kts | 151° |
| 2026-05-01 09:46 | 37.47631 | -5.60641 | 4263 ft | 224 kts | 160° |
| 2026-05-01 09:46 | 37.46167 | -5.60040 | 4045 ft | 219 kts | 165° |
| 2026-05-01 09:46 | 37.44686 | -5.59804 | 3801 ft | 214 kts | 189° |
| 2026-05-01 09:47 | 37.43347 | -5.60536 | 3598 ft | 211 kts | 217° |
| 2026-05-01 09:47 | 37.42334 | -5.61811 | 3409 ft | 202 kts | 239° |
| 2026-05-01 09:47 | 37.41913 | -5.63415 | 3254 ft | 190 kts | 266° |
| 2026-05-01 09:47 | 37.41923 | -5.65024 | 3085 ft | 178 kts | 269° |
| 2026-05-01 09:48 | 37.41906 | -5.66538 | 2905 ft | 170 kts | 268° |
| 2026-05-01 09:48 | 37.41891 | -5.68025 | 2736 ft | 170 kts | 269° |
| 2026-05-01 09:48 | 37.41883 | -5.69503 | 2561 ft | 168 kts | 269° |
| 2026-05-01 09:48 | 37.41874 | -5.70922 | 2380 ft | 156 kts | 269° |
| 2026-05-01 09:49 | 37.41868 | -5.72240 | 2269 ft | 145 kts | 269° |
| 2026-05-01 09:49 | 37.41861 | -5.73522 | 2125 ft | 149 kts | 269° |
| 2026-05-01 09:49 | 37.41855 | -5.74836 | 1896 ft | 152 kts | 269° |
| 2026-05-01 09:49 | 37.41845 | -5.76160 | 1766 ft | 150 kts | 269° |
| 2026-05-01 09:50 | 37.41852 | -5.77455 | 1638 ft | 147 kts | 269° |
| 2026-05-01 09:50 | 37.41838 | -5.78753 | 1484 ft | 151 kts | 270° |
| 2026-05-01 09:50 | 37.41830 | -5.80056 | 1287 ft | 148 kts | 270° |
| 2026-05-01 09:50 | 37.41824 | -5.81347 | 1097 ft | 147 kts | 270° |
| 2026-05-01 09:51 | 37.41820 | -5.82634 | 903 ft | 147 kts | 270° |
| 2026-05-01 09:51 | 37.41810 | -5.83917 | 713 ft | 147 kts | 270° |
| 2026-05-01 09:51 | 37.41809 | -5.85203 | 511 ft | 147 kts | 270° |
| 2026-05-01 09:51 | 37.41806 | -5.86491 | 298 ft | 148 kts | 270° |
| 2026-05-01 09:52 | 37.41804 | -5.87788 | 125 ft | 147 kts | 270° |
| 2026-05-01 09:52 | 37.41806 | -5.88827 | 110 ft | 72 kts | 270° |
| 2026-05-01 09:52 | 37.41811 | -5.89218 | 103 ft | 4 kts | 284° |
| 2026-05-01 09:52 | 37.41850 | -5.89272 | 103 ft | 12 kts | 329° |
| 2026-05-01 09:53 | 37.41932 | -5.89327 | 100 ft | 14 kts | 332° |